createdAt,value
2018-05-29T00:01:24.530Z,22.40
2018-05-29T00:03:52.127Z,27.50
2018-05-29T00:06:20.460Z,23.23
2018-05-29T00:08:48.041Z,22.93
2018-05-29T00:11:15.636Z,23.87
2018-05-29T00:13:43.982Z,27.30
2018-05-29T00:16:11.539Z,22.90
2018-05-29T00:18:39.152Z,30.15
2018-05-29T00:21:06.763Z,24.43
2018-05-29T00:23:34.299Z,23.47
2018-05-29T00:26:01.897Z,22.70
2018-05-29T00:28:29.466Z,20.57
2018-05-29T00:30:57.036Z,21.07
2018-05-29T00:33:25.404Z,19.43
2018-05-29T00:35:52.972Z,22.93
2018-05-29T00:38:21.307Z,22.83
2018-05-29T00:40:48.914Z,24.27
2018-05-29T00:43:17.250Z,22.13
2018-05-29T00:45:44.823Z,22.43
2018-05-29T00:48:12.420Z,23.30
2018-05-29T00:50:40.019Z,26.90
2018-05-29T00:53:07.583Z,22.20
2018-05-29T00:55:38.243Z,17.73
2018-05-29T00:58:05.819Z,20.40
2018-05-29T01:00:33.388Z,25.62
2018-05-29T01:03:01.440Z,22.90
2018-05-29T01:05:29.016Z,18.83
2018-05-29T01:07:56.580Z,18.83
2018-05-29T01:10:24.187Z,19.97
2018-05-29T01:12:52.085Z,19.40
2018-05-29T01:15:19.656Z,18.07
2018-05-29T01:17:47.261Z,16.60
2018-05-29T01:20:14.829Z,22.50
2018-05-29T01:22:42.397Z,21.67
2018-05-29T01:25:10.510Z,19.50
2018-05-29T01:27:38.076Z,19.77
2018-05-29T01:30:05.644Z,17.23
2018-05-29T01:32:33.252Z,16.23
2018-05-29T01:35:00.823Z,22.33
2018-05-29T01:37:28.384Z,19.17
2018-05-29T01:39:55.985Z,18.17
2018-05-29T01:42:23.551Z,19.80
2018-05-29T01:44:51.141Z,17.97
2018-05-29T01:47:18.764Z,23.48
2018-05-29T01:49:46.329Z,21.10
2018-05-29T01:52:13.902Z,24.30
2018-05-29T01:54:41.505Z,22.50
2018-05-29T01:57:09.064Z,22.53
2018-05-29T01:59:36.628Z,20.20
2018-05-29T02:02:04.242Z,22.20
2018-05-29T02:04:31.865Z,20.93
2018-05-29T02:06:59.377Z,20.93
2018-05-29T02:09:27.008Z,21.73
2018-05-29T02:11:54.588Z,25.70
2018-05-29T02:14:22.156Z,21.03
2018-05-29T02:16:49.757Z,23.33
2018-05-29T02:19:17.329Z,19.63
2018-05-29T02:21:44.893Z,23.17
2018-05-29T02:24:12.498Z,23.10
2018-05-29T02:26:40.093Z,20.00
2018-05-29T02:29:07.663Z,28.87
2018-05-29T02:31:35.273Z,21.63
2018-05-29T02:34:02.855Z,20.33
2018-05-29T02:36:30.424Z,26.45
2018-05-29T02:38:58.802Z,21.73
2018-05-29T02:41:27.130Z,25.63
2018-05-29T02:43:54.694Z,22.10
2018-05-29T02:46:22.297Z,24.87
2018-05-29T02:48:49.858Z,22.73
2018-05-29T02:51:17.430Z,20.97
2018-05-29T02:53:45.820Z,20.80
2018-05-29T02:56:14.167Z,20.07
2018-05-29T02:58:41.735Z,22.97
2018-05-29T03:01:09.380Z,19.93
2018-05-29T03:03:37.338Z,27.43
2018-05-29T03:06:04.908Z,22.07
2018-05-29T03:08:32.507Z,22.73
2018-05-29T03:11:00.847Z,29.35
2018-05-29T03:13:28.408Z,24.13
2018-05-29T03:15:56.585Z,26.03
2018-05-29T03:18:24.154Z,25.70
2018-05-29T03:20:51.722Z,24.77
2018-05-29T03:23:19.326Z,25.60
2018-05-29T03:25:46.901Z,26.17
2018-05-29T03:28:14.459Z,29.47
2018-05-29T03:30:42.063Z,26.80
2018-05-29T03:33:09.632Z,28.03
2018-05-29T03:35:37.196Z,28.00
2018-05-29T03:38:05.258Z,29.15
2018-05-29T03:40:32.847Z,28.73
2018-05-29T03:43:01.175Z,29.17
2018-05-29T03:45:28.773Z,24.40
2018-05-29T03:47:56.355Z,23.67
2018-05-29T03:50:24.690Z,25.57
2018-05-29T03:52:52.291Z,22.80
2018-05-29T03:55:20.627Z,24.67
2018-05-29T03:57:48.209Z,23.80
2018-05-29T04:00:15.828Z,29.15
2018-05-29T04:02:43.398Z,27.80
2018-05-29T04:05:10.974Z,20.63
2018-05-29T04:07:38.580Z,22.37
2018-05-29T04:10:06.914Z,23.40
2018-05-29T04:12:34.484Z,22.97
2018-05-29T04:15:02.102Z,23.37
2018-05-29T04:17:29.667Z,26.17
2018-05-29T04:19:57.242Z,26.27
2018-05-29T04:22:24.867Z,26.23
2018-05-29T04:24:53.202Z,19.23
2018-05-29T04:27:20.771Z,23.13
2018-05-29T04:29:48.374Z,23.73
2018-05-29T04:32:16.754Z,24.33
2018-05-29T04:34:44.275Z,24.80
2018-05-29T04:37:11.871Z,26.13
2018-05-29T04:39:40.222Z,21.67
2018-05-29T04:42:07.792Z,24.60
2018-05-29T04:44:35.426Z,23.00
2018-05-29T04:47:02.997Z,20.77
2018-05-29T04:49:30.559Z,23.00
2018-05-29T04:51:58.166Z,21.67
2018-05-29T04:54:26.505Z,22.17
2018-05-29T04:56:54.074Z,23.80
2018-05-29T04:59:21.681Z,28.17
2018-05-29T05:01:49.246Z,25.17
2018-05-29T05:04:16.805Z,21.20
2018-05-29T05:06:45.319Z,21.13
2018-05-29T05:09:12.890Z,22.13
2018-05-29T05:11:40.458Z,24.87
2018-05-29T05:14:08.064Z,20.67
2018-05-29T05:16:35.635Z,18.67
2018-05-29T05:19:03.196Z,21.47
2018-05-29T05:21:30.799Z,20.03
2018-05-29T05:23:58.367Z,21.93
2018-05-29T05:26:25.933Z,24.37
2018-05-29T05:28:53.927Z,22.80
2018-05-29T05:31:22.261Z,23.17
2018-05-29T05:33:49.887Z,22.27
2018-05-29T05:36:17.458Z,21.07
2018-05-29T05:38:45.028Z,22.87
2018-05-29T05:41:12.591Z,21.73
2018-05-29T05:43:40.188Z,18.83
2018-05-29T05:46:07.826Z,19.07
2018-05-29T05:48:35.333Z,19.87
2018-05-29T05:51:02.947Z,18.70
2018-05-29T05:53:30.512Z,20.90
2018-05-29T05:55:58.079Z,20.87
2018-05-29T05:58:25.723Z,21.23
2018-05-29T06:00:54.018Z,22.73
2018-05-29T06:03:21.579Z,21.60
2018-05-29T06:05:49.195Z,16.53
2018-05-29T06:08:16.760Z,22.13
2018-05-29T06:10:44.323Z,22.83
2018-05-29T06:13:11.949Z,19.60
2018-05-29T06:15:39.520Z,20.90
2018-05-29T06:18:07.859Z,18.57
2018-05-29T06:20:35.464Z,13.53
2018-05-29T06:23:03.797Z,18.80
2018-05-29T06:25:31.366Z,15.57
2018-05-29T06:27:58.977Z,14.53
2018-05-29T06:30:27.308Z,16.17
2018-05-29T06:32:54.883Z,14.60
2018-05-29T06:35:22.900Z,16.47
2018-05-29T06:37:50.474Z,15.77
2018-05-29T06:40:18.044Z,15.00
2018-05-29T06:42:46.185Z,15.53
2018-05-29T06:45:14.523Z,15.13
2018-05-29T06:47:42.087Z,12.87
2018-05-29T06:50:10.041Z,12.47
2018-05-29T06:52:37.621Z,13.90
2018-05-29T06:55:05.179Z,13.97
2018-05-29T06:57:32.792Z,13.07
2018-05-29T07:00:00.608Z,15.60
2018-05-29T07:02:28.174Z,16.63
2018-05-29T07:04:55.794Z,18.20
2018-05-29T07:07:23.356Z,16.55
2018-05-29T07:09:50.918Z,14.63
2018-05-29T07:12:18.516Z,16.87
2018-05-29T07:14:46.081Z,16.67
2018-05-29T07:17:13.650Z,15.30
2018-05-29T07:19:42.051Z,14.97
2018-05-29T07:22:10.391Z,13.18
2018-05-29T07:24:37.972Z,11.83
2018-05-29T07:27:05.591Z,13.27
2018-05-29T07:29:33.161Z,13.23
2018-05-29T07:32:00.720Z,14.50
2018-05-29T07:34:28.358Z,12.17
2018-05-29T07:36:55.924Z,15.07
2018-05-29T07:39:23.483Z,16.30
2018-05-29T07:41:51.093Z,11.63
2018-05-29T07:44:18.662Z,11.23
2018-05-29T07:46:46.219Z,13.03
2018-05-29T07:49:13.871Z,13.30
2018-05-29T07:51:41.399Z,12.53
2018-05-29T07:54:08.968Z,15.27
2018-05-29T07:56:36.582Z,15.23
2018-05-29T07:59:04.146Z,12.07
2018-05-29T08:01:32.473Z,10.63
2018-05-29T08:04:00.122Z,11.53
2018-05-29T08:06:27.724Z,14.07
2018-05-29T08:08:55.254Z,14.50
2018-05-29T08:11:23.247Z,12.60
2018-05-29T08:13:50.813Z,12.57
2018-05-29T08:16:18.384Z,13.77
2018-05-29T08:18:46.550Z,13.43
2018-05-29T08:21:14.110Z,13.63
2018-05-29T08:23:41.678Z,15.60
2018-05-29T08:26:09.295Z,14.90
2018-05-29T08:28:36.860Z,15.97
2018-05-29T08:31:04.449Z,12.60
2018-05-29T08:33:32.047Z,15.00
2018-05-29T08:35:59.609Z,12.20
2018-05-29T08:38:27.170Z,14.53
2018-05-29T08:40:54.790Z,11.93
2018-05-29T08:43:22.355Z,13.50
2018-05-29T08:45:49.921Z,13.93
2018-05-29T08:48:17.993Z,11.87
2018-05-29T08:50:45.564Z,11.93
2018-05-29T08:53:13.140Z,13.53
2018-05-29T08:55:40.759Z,14.87
2018-05-29T08:58:08.320Z,12.60
2018-05-29T09:00:35.892Z,15.80
2018-05-29T09:03:04.013Z,13.33
2018-05-29T09:05:31.580Z,15.17
2018-05-29T09:07:59.933Z,16.63
2018-05-29T09:10:27.539Z,11.70
2018-05-29T09:12:55.108Z,12.73
2018-05-29T09:15:24.146Z,11.17
2018-05-29T09:17:51.803Z,11.50
2018-05-29T09:20:19.358Z,13.67
2018-05-29T09:22:46.931Z,12.98
2018-05-29T09:25:15.602Z,15.43
2018-05-29T09:27:43.162Z,12.10
2018-05-29T09:30:10.727Z,10.50
2018-05-29T09:32:38.359Z,12.03
2018-05-29T09:35:05.925Z,11.20
2018-05-29T09:37:33.508Z,10.83
2018-05-29T09:40:01.120Z,13.10
2018-05-29T09:42:28.682Z,12.13
2018-05-29T09:44:57.017Z,14.30
2018-05-29T09:47:24.676Z,18.23
2018-05-29T09:49:52.245Z,14.60
2018-05-29T09:52:19.810Z,15.13
2018-05-29T09:54:47.463Z,13.00
2018-05-29T09:57:15.027Z,11.90
2018-05-29T09:59:42.593Z,12.60
2018-05-29T10:02:10.702Z,12.27
2018-05-29T10:04:39.036Z,11.50
2018-05-29T10:07:06.625Z,10.30
2018-05-29T10:09:34.211Z,12.00
2018-05-29T10:12:02.542Z,12.80
2018-05-29T10:14:30.104Z,10.27
2018-05-29T10:16:57.736Z,10.60
2018-05-29T10:19:25.317Z,12.03
2018-05-29T10:21:52.854Z,11.53
2018-05-29T10:24:20.474Z,13.03
2018-05-29T10:26:48.035Z,10.63
2018-05-29T10:29:15.595Z,14.70
2018-05-29T10:31:43.196Z,13.43
2018-05-29T10:34:10.761Z,13.37
2018-05-29T10:36:38.333Z,13.10
2018-05-29T10:39:09.108Z,15.27
2018-05-29T10:41:36.679Z,14.50
2018-05-29T10:44:04.246Z,14.67
2018-05-29T10:46:32.229Z,15.67
2018-05-29T10:49:00.592Z,10.17
2018-05-29T10:51:28.147Z,8.80
2018-05-29T10:53:55.755Z,8.70
2018-05-29T10:56:23.323Z,12.55
2018-05-29T10:58:50.883Z,7.03
2018-05-29T11:01:18.497Z,8.67
2018-05-29T11:03:46.054Z,7.63
2018-05-29T11:06:13.649Z,8.57
2018-05-29T11:08:41.236Z,12.27
2018-05-29T11:11:08.805Z,21.87
2018-05-29T11:13:36.678Z,12.27
2018-05-29T11:16:04.282Z,9.43
2018-05-29T11:18:31.843Z,11.40
2018-05-29T11:20:59.411Z,9.13
2018-05-29T11:23:28.263Z,8.17
2018-05-29T11:25:55.825Z,8.53
2018-05-29T11:28:23.393Z,9.40
2018-05-29T11:30:51.505Z,6.87
2018-05-29T11:33:19.069Z,10.47
2018-05-29T11:35:47.405Z,14.43
2018-05-29T11:38:15.983Z,15.50
2018-05-29T11:40:43.543Z,8.63
2018-05-29T11:43:11.112Z,14.43
2018-05-29T11:45:39.188Z,13.18
2018-05-29T11:48:06.755Z,11.52
2018-05-29T11:50:34.326Z,9.48
2018-05-29T11:53:02.476Z,13.73
2018-05-29T11:55:30.037Z,9.60
2018-05-29T11:57:57.603Z,11.20
2018-05-29T12:00:25.664Z,9.40
2018-05-29T12:02:53.233Z,10.73
2018-05-29T12:05:20.794Z,9.43
2018-05-29T12:07:48.397Z,9.67
2018-05-29T12:10:16.734Z,8.07
2018-05-29T12:12:44.291Z,7.80
2018-05-29T12:15:12.474Z,8.00
2018-05-29T12:17:40.030Z,11.63
2018-05-29T12:20:07.594Z,9.43
2018-05-29T12:22:35.851Z,8.33
2018-05-29T12:25:03.451Z,9.97
2018-05-29T12:27:31.012Z,7.30
2018-05-29T12:29:59.263Z,10.23
2018-05-29T12:32:26.859Z,8.90
2018-05-29T12:34:54.415Z,10.27
2018-05-29T12:37:22.419Z,9.60
2018-05-29T12:39:49.982Z,7.57
2018-05-29T12:42:17.542Z,6.17
2018-05-29T12:44:45.950Z,7.00
2018-05-29T12:47:13.506Z,5.60
2018-05-29T12:49:41.067Z,8.00
2018-05-29T12:52:08.711Z,5.30
2018-05-29T12:54:36.265Z,6.53
2018-05-29T12:57:03.826Z,7.97
2018-05-29T12:59:32.158Z,6.07
2018-05-29T13:01:59.720Z,8.03
2018-05-29T13:04:27.281Z,7.77
2018-05-29T13:06:54.927Z,6.40
2018-05-29T13:09:22.483Z,8.20
2018-05-29T13:11:50.044Z,9.32
2018-05-29T13:14:17.688Z,12.80
2018-05-29T13:16:45.301Z,5.73
2018-05-29T13:19:12.815Z,5.07
2018-05-29T13:21:41.426Z,8.93
2018-05-29T13:24:08.986Z,6.50
2018-05-29T13:26:36.576Z,10.37
2018-05-29T13:29:04.934Z,5.57
2018-05-29T13:31:32.495Z,8.03
2018-05-29T13:34:00.057Z,5.83
2018-05-29T13:36:27.665Z,5.30
2018-05-29T13:38:55.990Z,6.83
2018-05-29T13:41:23.854Z,5.83
2018-05-29T13:43:51.455Z,4.93
2018-05-29T13:46:19.015Z,9.10
2018-05-29T13:48:59.836Z,5.10
2018-05-29T13:51:27.394Z,6.90
2018-05-29T13:53:54.950Z,5.20
2018-05-29T13:56:22.608Z,7.43
2018-05-29T13:58:50.123Z,4.43
2018-05-29T14:01:17.682Z,7.00
2018-05-29T14:03:45.301Z,6.63
2018-05-29T14:06:12.861Z,6.47
2018-05-29T14:08:40.423Z,5.40
2018-05-29T14:11:08.029Z,6.13
2018-05-29T14:13:35.592Z,5.50
2018-05-29T14:16:03.170Z,8.63
2018-05-29T14:18:30.779Z,7.17
2018-05-29T14:20:58.338Z,8.20
2018-05-29T14:23:25.936Z,10.50
2018-05-29T14:25:53.581Z,7.50
2018-05-29T14:28:21.147Z,5.23
2018-05-29T14:30:48.706Z,5.50
2018-05-29T14:33:16.779Z,6.97
2018-05-29T14:35:44.348Z,6.07
2018-05-29T14:38:11.900Z,6.37
2018-05-29T14:40:39.522Z,6.67
2018-05-29T14:43:07.095Z,5.53
2018-05-29T14:45:34.654Z,4.17
2018-05-29T14:48:02.274Z,7.23
2018-05-29T14:50:30.307Z,5.40
2018-05-29T14:52:57.870Z,6.13
2018-05-29T14:55:25.516Z,6.43
2018-05-29T14:57:53.073Z,5.13
2018-05-29T15:00:20.630Z,6.20
2018-05-29T15:02:48.220Z,7.97
2018-05-29T15:05:15.846Z,5.10
2018-05-29T15:07:43.412Z,5.87
2018-05-29T15:10:11.774Z,4.37
2018-05-29T15:12:39.318Z,4.50
2018-05-29T15:15:06.871Z,4.50
2018-05-29T15:17:34.527Z,4.77
2018-05-29T15:20:02.097Z,5.33
2018-05-29T15:22:29.654Z,4.60
2018-05-29T15:24:57.848Z,5.17
2018-05-29T15:27:25.362Z,3.23
2018-05-29T15:29:52.919Z,9.80
2018-05-29T15:32:20.534Z,5.70
2018-05-29T15:34:48.866Z,7.90
2018-05-29T15:37:16.443Z,5.67
2018-05-29T15:39:44.057Z,4.87
2018-05-29T15:42:12.637Z,5.78
2018-05-29T15:44:40.196Z,6.13
2018-05-29T15:47:07.801Z,5.87
2018-05-29T15:49:35.662Z,4.77
2018-05-29T15:52:03.250Z,3.47
2018-05-29T15:54:30.840Z,5.60
2018-05-29T15:56:59.169Z,6.40
2018-05-29T15:59:26.738Z,5.63
2018-05-29T16:01:54.348Z,5.32
2018-05-29T16:04:22.675Z,6.43
2018-05-29T16:06:50.235Z,4.33
2018-05-29T16:09:17.842Z,3.95
2018-05-29T16:11:46.172Z,6.70
2018-05-29T16:14:13.770Z,4.53
2018-05-29T16:16:41.365Z,5.37
2018-05-29T16:19:08.923Z,5.37
2018-05-29T16:21:36.480Z,7.90
2018-05-29T16:24:04.111Z,5.50
2018-05-29T16:26:31.701Z,6.10
2018-05-29T16:29:00.011Z,8.50
2018-05-29T16:31:27.621Z,8.30
2018-05-29T16:33:55.951Z,6.37
2018-05-29T16:36:23.511Z,4.97
2018-05-29T16:38:51.118Z,5.37
2018-05-29T16:41:18.678Z,6.83
2018-05-29T16:43:46.241Z,5.90
2018-05-29T16:46:15.411Z,5.33
2018-05-29T16:48:42.967Z,5.63
2018-05-29T16:51:10.534Z,7.78
2018-05-29T16:53:39.024Z,4.87
2018-05-29T16:56:06.590Z,6.73
2018-05-29T16:58:34.148Z,7.57
2018-05-29T17:01:01.756Z,3.63
2018-05-29T17:03:29.336Z,6.70
2018-05-29T17:05:56.890Z,4.40
2018-05-29T17:08:24.493Z,7.63
2018-05-29T17:10:52.079Z,4.53
2018-05-29T17:13:20.414Z,6.07
2018-05-29T17:15:48.051Z,7.87
2018-05-29T17:18:15.607Z,4.93
2018-05-29T17:20:43.173Z,7.10
2018-05-29T17:23:10.775Z,5.93
2018-05-29T17:25:38.335Z,4.47
2018-05-29T17:28:05.896Z,5.67
2018-05-29T17:30:33.510Z,5.22
2018-05-29T17:33:01.067Z,4.37
2018-05-29T17:35:28.654Z,4.47
2018-05-29T17:37:56.653Z,5.27
2018-05-29T17:40:24.216Z,5.60
2018-05-29T17:42:52.223Z,9.00
2018-05-29T17:45:19.780Z,5.83
2018-05-29T17:47:47.694Z,8.90
2018-05-29T17:50:15.336Z,11.73
2018-05-29T17:52:42.954Z,8.80
2018-05-29T17:55:10.526Z,5.97
2018-05-29T17:57:38.098Z,4.50
2018-05-29T18:00:06.512Z,5.43
2018-05-29T18:02:34.091Z,6.97
2018-05-29T18:05:01.651Z,5.57
2018-05-29T18:07:29.304Z,4.37
2018-05-29T18:09:56.876Z,3.70
2018-05-29T18:12:24.437Z,6.93
2018-05-29T18:14:52.205Z,4.47
2018-05-29T18:17:20.367Z,7.10
2018-05-29T18:19:47.925Z,7.70
2018-05-29T18:22:15.557Z,7.13
2018-05-29T18:24:43.895Z,5.03
2018-05-29T18:27:11.465Z,5.63
2018-05-29T18:29:39.108Z,4.78
2018-05-29T18:32:06.654Z,4.80
2018-05-29T18:34:34.220Z,5.13
2018-05-29T18:37:01.825Z,8.23
2018-05-29T18:39:29.399Z,6.67
2018-05-29T18:41:56.958Z,6.93
2018-05-29T18:44:25.140Z,4.80
2018-05-29T18:46:52.667Z,7.00
2018-05-29T18:49:20.236Z,10.17
2018-05-29T18:51:47.851Z,6.45
2018-05-29T18:54:15.420Z,5.72
2018-05-29T18:56:42.988Z,9.60
2018-05-29T18:59:11.483Z,8.40
2018-05-29T19:01:39.043Z,5.37
2018-05-29T19:04:06.614Z,5.33
2018-05-29T19:06:34.294Z,6.07
2018-05-29T19:09:01.824Z,9.18
2018-05-29T19:11:29.387Z,6.87
2018-05-29T19:13:57.479Z,7.67
2018-05-29T19:16:25.044Z,6.70
2018-05-29T19:18:52.597Z,5.50
2018-05-29T19:21:20.211Z,6.00
2018-05-29T19:23:47.777Z,8.38
2018-05-29T19:26:15.359Z,6.73
2018-05-29T19:28:44.061Z,6.97
2018-05-29T19:31:12.132Z,5.87
2018-05-29T19:33:39.699Z,11.33
2018-05-29T19:36:08.245Z,5.53
2018-05-29T19:38:35.810Z,5.78
2018-05-29T19:41:03.392Z,10.32
2018-05-29T19:43:32.838Z,7.90
2018-05-29T19:46:00.409Z,7.83
2018-05-29T19:48:27.972Z,7.83
2018-05-29T19:50:55.643Z,8.97
2018-05-29T19:53:23.150Z,7.03
2018-05-29T19:55:50.752Z,4.53
2018-05-29T19:58:18.364Z,6.37
2018-05-29T20:00:45.978Z,6.60
2018-05-29T20:03:13.507Z,7.67
2018-05-29T20:05:41.125Z,5.03
2018-05-29T20:08:08.717Z,5.20
2018-05-29T20:10:36.319Z,7.70
2018-05-29T20:13:04.000Z,7.73
2018-05-29T20:15:31.562Z,6.43
2018-05-29T20:17:59.130Z,5.63
2018-05-29T20:20:26.803Z,6.13
2018-05-29T20:22:54.382Z,11.27
2018-05-29T20:25:21.938Z,8.80
2018-05-29T20:27:51.215Z,7.03
2018-05-29T20:30:18.835Z,10.27
2018-05-29T20:32:46.398Z,6.80
2018-05-29T20:35:14.517Z,7.90
2018-05-29T20:37:42.089Z,8.03
2018-05-29T20:40:09.648Z,9.90
2018-05-29T20:42:37.262Z,7.40
2018-05-29T20:45:04.828Z,7.07
2018-05-29T20:47:32.407Z,8.37
2018-05-29T20:50:00.052Z,10.37
2018-05-29T20:52:27.605Z,9.50
2018-05-29T20:54:55.164Z,7.33
2018-05-29T20:57:22.778Z,8.90
2018-05-29T20:59:50.343Z,10.57
2018-05-29T21:02:17.911Z,7.50
2018-05-29T21:04:45.529Z,11.93
2018-05-29T21:07:13.853Z,8.10
2018-05-29T21:09:41.423Z,7.73
2018-05-29T21:12:09.052Z,10.03
2018-05-29T21:14:36.623Z,10.47
2018-05-29T21:17:04.189Z,9.80
2018-05-29T21:19:31.799Z,8.47
2018-05-29T21:21:59.356Z,12.70
2018-05-29T21:24:26.913Z,8.53
2018-05-29T21:26:55.170Z,9.17
2018-05-29T21:29:22.737Z,7.47
2018-05-29T21:31:50.295Z,7.80
2018-05-29T21:34:18.075Z,14.47
2018-05-29T21:36:46.124Z,7.23
2018-05-29T21:39:13.691Z,9.93
2018-05-29T21:41:41.298Z,9.30
2018-05-29T21:44:08.859Z,10.97
2018-05-29T21:46:36.435Z,9.23
2018-05-29T21:49:04.022Z,9.60
2018-05-29T21:51:31.588Z,11.63
2018-05-29T21:53:59.157Z,9.53
2018-05-29T21:56:26.812Z,11.80
2018-05-29T21:58:54.367Z,7.97
2018-05-29T22:01:21.929Z,10.73
2018-05-29T22:03:49.526Z,8.80
2018-05-29T22:06:17.110Z,8.20
2018-05-29T22:08:45.438Z,7.47
2018-05-29T22:11:13.521Z,13.40
2018-05-29T22:13:41.094Z,8.67
2018-05-29T22:16:08.672Z,8.20
2018-05-29T22:18:36.268Z,10.30
2018-05-29T22:21:03.834Z,7.57
2018-05-29T22:23:31.393Z,9.97
2018-05-29T22:25:59.016Z,9.73
2018-05-29T22:28:26.587Z,10.77
2018-05-29T22:30:54.158Z,11.07
2018-05-29T22:33:21.761Z,10.13
2018-05-29T22:35:49.333Z,10.97
2018-05-29T22:38:16.897Z,10.93
2018-05-29T22:40:44.491Z,11.60
2018-05-29T22:43:12.825Z,9.43
2018-05-29T22:45:40.390Z,11.17
2018-05-29T22:48:08.047Z,13.27
2018-05-29T22:50:35.623Z,10.23
2018-05-29T22:53:03.199Z,11.77
2018-05-29T22:55:30.801Z,11.30
2018-05-29T22:57:58.362Z,10.33
2018-05-29T23:00:25.932Z,12.13
2018-05-29T23:02:53.540Z,12.03
2018-05-29T23:05:21.098Z,9.30
2018-05-29T23:07:48.659Z,13.03
2018-05-29T23:10:16.266Z,9.60
2018-05-29T23:12:44.599Z,14.40
2018-05-29T23:15:12.174Z,14.23
2018-05-29T23:17:39.786Z,16.95
2018-05-29T23:20:07.361Z,13.10
2018-05-29T23:22:34.924Z,8.60
2018-05-29T23:25:02.519Z,9.40
2018-05-29T23:27:30.082Z,9.60
2018-05-29T23:29:57.650Z,8.10
2018-05-29T23:32:25.284Z,12.17
2018-05-29T23:34:52.848Z,12.93
2018-05-29T23:37:20.419Z,9.40
2018-05-29T23:39:48.025Z,10.77
2018-05-29T23:42:15.598Z,12.88
2018-05-29T23:44:43.157Z,8.80
2018-05-29T23:47:10.747Z,7.67
2018-05-29T23:49:38.304Z,8.63
2018-05-29T23:52:05.875Z,11.30
2018-05-29T23:54:33.653Z,9.73
2018-05-29T23:57:01.234Z,10.70
2018-05-29T23:59:28.799Z,9.00
